createdAt,value
2023-01-13T00:00:24.600Z,99936.10
2023-01-13T00:03:12.425Z,99937.65
2023-01-13T00:05:40.666Z,99933.30
2023-01-13T00:08:08.760Z,99936.56
2023-01-13T00:10:37.937Z,99939.10
2023-01-13T00:13:06.023Z,99935.59
2023-01-13T00:15:34.142Z,99928.32
2023-01-13T00:18:02.099Z,99924.75
2023-01-13T00:20:30.361Z,99923.88
2023-01-13T00:23:00.233Z,99924.58
2023-01-13T00:25:28.514Z,99921.15
2023-01-13T00:27:56.811Z,99923.58
2023-01-13T00:30:24.625Z,99920.31
2023-01-13T00:32:52.872Z,99923.60
2023-01-13T00:35:23.829Z,99924.84
2023-01-13T00:37:51.659Z,99920.80
2023-01-13T00:40:19.967Z,99917.41
2023-01-13T00:43:07.090Z,99910.14
2023-01-13T00:45:35.001Z,99910.42
2023-01-13T00:48:03.155Z,99912.40
2023-01-13T00:50:31.009Z,99911.08
2023-01-13T00:53:02.934Z,99906.27
2023-01-13T00:55:32.473Z,99906.31
2023-01-13T00:58:03.828Z,99907.84
2023-01-13T01:00:33.184Z,99908.97
2023-01-13T01:03:01.194Z,99908.31
2023-01-13T01:05:29.223Z,99905.11
2023-01-13T01:07:57.110Z,99899.61
2023-01-13T01:10:25.641Z,99901.63
2023-01-13T01:12:54.398Z,99895.84
2023-01-13T01:15:22.240Z,99897.98
2023-01-13T01:17:50.379Z,99894.53
2023-01-13T01:20:18.558Z,99895.83
2023-01-13T01:22:46.628Z,99887.33
2023-01-13T01:25:14.848Z,99889.31
2023-01-13T01:27:42.712Z,99884.23
2023-01-13T01:30:11.287Z,99878.98
2023-01-13T01:32:39.246Z,99879.58
2023-01-13T01:35:07.462Z,99871.59
2023-01-13T01:37:35.366Z,99868.14
2023-01-13T01:40:03.521Z,99863.44
2023-01-13T01:42:53.133Z,99857.20
2023-01-13T01:45:23.715Z,99851.85
2023-01-13T01:47:57.966Z,99852.92
2023-01-13T01:50:27.909Z,99845.00
2023-01-13T01:53:17.378Z,99850.65
2023-01-13T01:55:45.649Z,99849.70
2023-01-13T01:58:23.326Z,99844.68
2023-01-13T02:00:51.615Z,99848.19
2023-01-13T02:03:19.937Z,99847.49
2023-01-13T02:05:47.815Z,99847.35
2023-01-13T02:08:15.914Z,99825.34
2023-01-13T02:10:47.022Z,99823.48
2023-01-13T02:13:16.275Z,99818.02
2023-01-13T02:15:56.244Z,99816.11
2023-01-13T02:18:38.959Z,99818.61
2023-01-13T02:21:42.487Z,99823.48
2023-01-13T02:24:59.061Z,99821.30
2023-01-13T02:27:45.479Z,99826.05
2023-01-13T02:30:40.196Z,99829.64
2023-01-13T02:33:19.048Z,99830.31
2023-01-13T02:36:00.162Z,99832.40
2023-01-13T02:38:42.283Z,99834.73
2023-01-13T02:41:37.688Z,99835.16
2023-01-13T02:44:06.917Z,99832.95
2023-01-13T02:46:47.009Z,99832.17
2023-01-13T02:49:21.763Z,99831.77
2023-01-13T02:51:51.100Z,99826.11
2023-01-13T02:54:22.875Z,99827.73
2023-01-13T02:56:51.610Z,99828.52
2023-01-13T02:59:21.211Z,99828.63
2023-01-13T03:01:50.343Z,99831.68
2023-01-13T03:04:50.146Z,99827.27
2023-01-13T03:07:41.401Z,99826.27
2023-01-13T03:10:28.627Z,99821.99
2023-01-13T03:12:56.705Z,99823.60
2023-01-13T03:15:44.335Z,99821.68
2023-01-13T03:18:57.331Z,99816.17
2023-01-13T03:21:43.967Z,99813.27
2023-01-13T03:24:28.633Z,99811.23
2023-01-13T03:27:04.771Z,99820.44
2023-01-13T03:30:01.903Z,99814.13
2023-01-13T03:32:37.029Z,99810.75
2023-01-13T03:35:08.440Z,99810.75
2023-01-13T03:37:39.745Z,99815.23
2023-01-13T03:40:14.741Z,99816.09
2023-01-13T03:43:07.875Z,99817.55
2023-01-13T03:45:36.551Z,99811.27
2023-01-13T03:48:09.321Z,99813.80
2023-01-13T03:50:51.829Z,99813.92
2023-01-13T03:53:30.615Z,99811.64
2023-01-13T03:56:03.033Z,99810.95
2023-01-13T03:58:34.295Z,99811.11
2023-01-13T04:01:08.683Z,99807.31
2023-01-13T04:03:41.750Z,99805.17
2023-01-13T04:06:09.760Z,99807.25
2023-01-13T04:08:42.644Z,99802.10
2023-01-13T04:11:16.914Z,99802.53
2023-01-13T04:13:46.144Z,99798.85
2023-01-13T04:16:14.046Z,99801.30
2023-01-13T04:18:41.896Z,99805.70
2023-01-13T04:21:10.241Z,99802.06
2023-01-13T04:23:38.113Z,99801.07
2023-01-13T04:26:06.383Z,99799.28
2023-01-13T04:28:35.177Z,99790.08
2023-01-13T04:31:03.031Z,99789.90
2023-01-13T04:33:30.990Z,99793.35
2023-01-13T04:35:58.957Z,99788.03
2023-01-13T04:38:26.759Z,99787.63
2023-01-13T04:40:55.092Z,99785.20
2023-01-13T04:43:23.043Z,99781.40
2023-01-13T04:45:50.823Z,99782.84
2023-01-13T04:48:18.958Z,99780.15
2023-01-13T04:50:46.887Z,99780.47
2023-01-13T04:53:14.654Z,99778.79
2023-01-13T04:55:44.456Z,99776.73
2023-01-13T04:58:12.430Z,99773.98
2023-01-13T05:00:40.251Z,99775.42
2023-01-13T05:03:08.334Z,99778.17
2023-01-13T05:05:36.243Z,99773.37
2023-01-13T05:08:04.787Z,99777.29
2023-01-13T05:10:32.874Z,99778.95
2023-01-13T05:13:19.459Z,99772.95
2023-01-13T05:16:06.866Z,99771.19
2023-01-13T05:18:35.115Z,99771.84
2023-01-13T05:21:03.159Z,99772.07
2023-01-13T05:23:49.664Z,99771.73
2023-01-13T05:26:17.733Z,99772.73
2023-01-13T05:28:45.733Z,99775.12
2023-01-13T05:31:15.111Z,99776.98
2023-01-13T05:33:43.444Z,99771.51
2023-01-13T05:36:11.627Z,99777.98
2023-01-13T05:38:39.420Z,99778.88
2023-01-13T05:41:28.446Z,99780.63
2023-01-13T05:43:56.627Z,99780.42
2023-01-13T05:46:24.680Z,99777.42
2023-01-13T05:48:52.531Z,99781.42
2023-01-13T05:51:26.262Z,99782.59
2023-01-13T05:53:54.624Z,99784.35
2023-01-13T05:56:22.426Z,99784.91
2023-01-13T05:58:50.526Z,99782.84
2023-01-13T06:01:18.463Z,99783.54
2023-01-13T06:03:46.223Z,99779.33
2023-01-13T06:06:13.952Z,99775.77
2023-01-13T06:08:41.974Z,99777.91
2023-01-13T06:11:09.844Z,99776.61
2023-01-13T06:13:37.625Z,99776.55
2023-01-13T06:16:06.006Z,99776.28
2023-01-13T06:18:33.838Z,99771.36
2023-01-13T06:21:01.823Z,99775.91
2023-01-13T06:23:32.091Z,99777.86
2023-01-13T06:25:59.915Z,99781.02
2023-01-13T06:28:27.836Z,99780.22
2023-01-13T06:30:58.281Z,99777.69
2023-01-13T06:33:30.831Z,99775.54
2023-01-13T06:36:00.049Z,99770.77
2023-01-13T06:38:28.701Z,99774.54
2023-01-13T06:40:56.505Z,99774.58
2023-01-13T06:43:24.547Z,99779.75
2023-01-13T06:45:55.051Z,99778.76
2023-01-13T06:48:25.649Z,99776.83
2023-01-13T06:50:54.045Z,99773.30
2023-01-13T06:53:21.912Z,99779.48
2023-01-13T06:55:49.970Z,99779.05
2023-01-13T06:58:18.016Z,99777.48
2023-01-13T07:00:49.854Z,99779.58
2023-01-13T07:03:19.384Z,99784.19
2023-01-13T07:05:55.285Z,99782.30
2023-01-13T07:08:24.163Z,99783.58
2023-01-13T07:10:53.183Z,99782.56
2023-01-13T07:13:40.227Z,99778.66
2023-01-13T07:16:10.202Z,99779.16
2023-01-13T07:18:38.272Z,99783.92
2023-01-13T07:21:08.541Z,99784.97
2023-01-13T07:23:38.391Z,99784.33
2023-01-13T07:26:07.186Z,99783.68
2023-01-13T07:28:36.327Z,99788.34
2023-01-13T07:31:04.669Z,99786.54
2023-01-13T07:33:33.421Z,99788.73
2023-01-13T07:36:03.561Z,99786.84
2023-01-13T07:38:32.899Z,99781.33
2023-01-13T07:41:24.333Z,99785.05
2023-01-13T07:43:52.481Z,99784.52
2023-01-13T07:46:20.490Z,99783.08
2023-01-13T07:48:49.266Z,99786.57
2023-01-13T07:51:17.556Z,99786.98
2023-01-13T07:53:45.625Z,99787.27
2023-01-13T07:56:13.699Z,99790.58
2023-01-13T07:58:41.846Z,99792.83
2023-01-13T08:01:12.404Z,99793.27
2023-01-13T08:03:40.742Z,99791.25
2023-01-13T08:06:10.253Z,99792.09
2023-01-13T08:08:38.690Z,99797.10
2023-01-13T08:11:07.757Z,99793.74
2023-01-13T08:13:35.956Z,99796.97
2023-01-13T08:16:09.920Z,99788.47
2023-01-13T08:18:41.262Z,99785.48
2023-01-13T08:21:12.445Z,99796.76
2023-01-13T08:23:41.956Z,99799.65
2023-01-13T08:26:16.420Z,99797.38
2023-01-13T08:28:46.147Z,99798.77
2023-01-13T08:31:16.789Z,99798.92
2023-01-13T08:33:45.077Z,99802.31
2023-01-13T08:36:14.009Z,99805.40
2023-01-13T08:38:42.385Z,99799.76
2023-01-13T08:41:15.866Z,99795.14
2023-01-13T08:43:43.886Z,99797.55
2023-01-13T08:46:11.755Z,99794.31
2023-01-13T08:48:39.847Z,99793.06
2023-01-13T08:51:09.292Z,99791.75
2023-01-13T08:53:37.261Z,99799.20
2023-01-13T08:56:13.268Z,99801.42
2023-01-13T08:58:41.448Z,99803.58
2023-01-13T09:01:13.930Z,99803.85
2023-01-13T09:03:42.206Z,99808.73
2023-01-13T09:06:10.120Z,99807.63
2023-01-13T09:08:37.925Z,99808.58
2023-01-13T09:11:25.704Z,99813.89
2023-01-13T09:13:53.816Z,99818.04
2023-01-13T09:16:21.597Z,99819.16
2023-01-13T09:18:49.362Z,99822.91
2023-01-13T09:21:19.838Z,99825.64
2023-01-13T09:23:48.249Z,99820.82
2023-01-13T09:26:21.241Z,99819.43
2023-01-13T09:28:49.392Z,99818.09
2023-01-13T09:31:20.043Z,99818.17
2023-01-13T09:34:06.871Z,99822.83
2023-01-13T09:36:35.050Z,99819.98
2023-01-13T09:39:02.923Z,99817.28
2023-01-13T09:41:49.988Z,99815.59
2023-01-13T09:44:28.066Z,99814.36
2023-01-13T09:47:02.397Z,99818.09
2023-01-13T09:49:39.538Z,99810.67
2023-01-13T09:52:07.325Z,99814.84
2023-01-13T09:54:41.373Z,99816.06
2023-01-13T09:57:14.429Z,99813.25
2023-01-13T09:59:43.137Z,99808.41
2023-01-13T10:02:33.147Z,99800.63
2023-01-13T10:05:15.217Z,99794.39
2023-01-13T10:08:13.501Z,99793.55
2023-01-13T10:10:55.275Z,99790.35
2023-01-13T10:13:26.610Z,99788.70
2023-01-13T10:16:03.215Z,99788.67
2023-01-13T10:19:07.082Z,99787.53
2023-01-13T10:21:40.878Z,99782.36
2023-01-13T10:24:23.904Z,99779.73
2023-01-13T10:27:04.067Z,99777.36
2023-01-13T10:29:32.647Z,99777.30
2023-01-13T10:32:01.102Z,99773.86
2023-01-13T10:34:29.940Z,99767.25
2023-01-13T10:37:03.768Z,99767.16
2023-01-13T10:39:44.232Z,99763.77
2023-01-13T10:42:22.395Z,99760.23
2023-01-13T10:44:54.480Z,99758.14
2023-01-13T10:47:25.761Z,99762.15
2023-01-13T10:50:03.245Z,99752.64
2023-01-13T10:52:33.991Z,99752.02
2023-01-13T10:55:02.517Z,99748.80
2023-01-13T10:57:36.754Z,99750.36
2023-01-13T11:00:06.023Z,99743.63
2023-01-13T11:02:36.099Z,99737.05
2023-01-13T11:05:24.984Z,99745.39
2023-01-13T11:07:56.392Z,99741.73
2023-01-13T11:10:27.551Z,99742.18
2023-01-13T11:13:14.600Z,99738.27
2023-01-13T11:16:03.993Z,99744.29
2023-01-13T11:18:38.007Z,99739.30
2023-01-13T11:21:26.165Z,99744.28
2023-01-13T11:24:40.678Z,99745.99
2023-01-13T11:27:18.922Z,99745.11
2023-01-13T11:29:59.621Z,99742.70
2023-01-13T11:32:28.782Z,99735.80
2023-01-13T11:35:04.419Z,99729.21
2023-01-13T11:37:34.912Z,99726.45
2023-01-13T11:40:05.983Z,99726.27
2023-01-13T11:42:37.141Z,99722.65
2023-01-13T11:45:17.030Z,99717.27
2023-01-13T11:47:49.122Z,99717.25
2023-01-13T11:50:34.931Z,99719.33
2023-01-13T11:53:21.246Z,99719.95
2023-01-13T11:56:12.618Z,99721.95
2023-01-13T11:58:59.030Z,99719.82
2023-01-13T12:01:48.593Z,99717.48
2023-01-13T12:04:32.620Z,99716.24
2023-01-13T12:07:23.177Z,99723.39
2023-01-13T12:10:13.224Z,99724.52
2023-01-13T12:12:53.276Z,99718.25
2023-01-13T12:15:21.816Z,99716.55
2023-01-13T12:17:56.342Z,99719.80
2023-01-13T12:20:35.358Z,99716.95
2023-01-13T12:23:07.923Z,99713.40
2023-01-13T12:25:40.331Z,99718.19
2023-01-13T12:28:21.194Z,99720.08
2023-01-13T12:30:52.344Z,99720.22
2023-01-13T12:33:20.717Z,99727.72
2023-01-13T12:35:58.815Z,99726.70
2023-01-13T12:38:49.115Z,99727.42
2023-01-13T12:41:27.635Z,99720.54
2023-01-13T12:44:14.014Z,99719.98
2023-01-13T12:46:53.568Z,99723.49
2023-01-13T12:49:32.347Z,99723.91
2023-01-13T12:52:11.381Z,99729.83
2023-01-13T12:54:39.375Z,99726.94
2023-01-13T12:57:27.781Z,99729.66
2023-01-13T13:00:04.919Z,99728.92
2023-01-13T13:02:36.653Z,99726.48
2023-01-13T13:05:37.561Z,99728.16
2023-01-13T13:08:16.871Z,99732.75
2023-01-13T13:11:33.198Z,99733.38
2023-01-13T13:14:02.952Z,99736.07
2023-01-13T13:16:30.847Z,99742.92
2023-01-13T13:19:17.937Z,99743.83
2023-01-13T13:22:14.307Z,99740.55
2023-01-13T13:24:51.273Z,99743.34
2023-01-13T13:27:42.429Z,99744.69
2023-01-13T13:30:32.146Z,99751.25
2023-01-13T13:33:12.708Z,99749.77
2023-01-13T13:35:52.722Z,99752.80
2023-01-13T13:38:46.017Z,99755.29
2023-01-13T13:41:38.643Z,99754.98
2023-01-13T13:44:50.691Z,99753.15
2023-01-13T13:47:18.514Z,99759.41
2023-01-13T13:49:53.925Z,99764.41
2023-01-13T13:52:27.421Z,99766.55
2023-01-13T13:54:59.618Z,99771.66
2023-01-13T13:57:39.440Z,99776.84
2023-01-13T14:00:32.249Z,99776.48
2023-01-13T14:03:06.352Z,99780.45
2023-01-13T14:05:36.171Z,99785.45
2023-01-13T14:08:15.671Z,99788.73
2023-01-13T14:10:45.705Z,99797.42
2023-01-13T14:13:28.290Z,99802.92
2023-01-13T14:16:03.343Z,99816.20
2023-01-13T14:18:33.911Z,99819.21
2023-01-13T14:21:21.121Z,99829.36
2023-01-13T14:24:02.093Z,99830.19
2023-01-13T14:26:32.290Z,99828.81
2023-01-13T14:29:02.363Z,99829.52
2023-01-13T14:31:30.654Z,99833.73
2023-01-13T14:34:01.852Z,99833.09
2023-01-13T14:36:39.153Z,99834.10
2023-01-13T14:39:07.097Z,99833.39
2023-01-13T14:41:36.279Z,99840.73
2023-01-13T14:44:19.147Z,99849.39
2023-01-13T14:46:47.198Z,99849.04
2023-01-13T14:49:41.715Z,99848.25
2023-01-13T14:52:09.664Z,99848.95
2023-01-13T14:54:51.073Z,99850.86
2023-01-13T14:57:25.419Z,99854.70
2023-01-13T15:00:16.544Z,99854.77
2023-01-13T15:02:53.771Z,99860.89
2023-01-13T15:05:24.844Z,99859.60
2023-01-13T15:07:57.087Z,99858.06
2023-01-13T15:10:34.958Z,99856.84
2023-01-13T15:13:05.466Z,99861.58
2023-01-13T15:15:36.059Z,99847.52
2023-01-13T15:18:15.222Z,99847.73
2023-01-13T15:20:43.452Z,99859.48
2023-01-13T15:23:11.641Z,99859.65
2023-01-13T15:25:42.012Z,99864.81
2023-01-13T15:28:23.245Z,99871.39
2023-01-13T15:30:52.674Z,99878.67
2023-01-13T15:33:22.064Z,99881.20
2023-01-13T15:35:52.392Z,99879.88
2023-01-13T15:38:22.001Z,99880.57
2023-01-13T15:40:51.184Z,99875.46
2023-01-13T15:43:42.411Z,99873.23
2023-01-13T15:46:32.340Z,99870.48
2023-01-13T15:49:02.750Z,99868.25
2023-01-13T15:51:30.593Z,99865.70
2023-01-13T15:54:02.544Z,99865.06
2023-01-13T15:56:30.777Z,99866.33
2023-01-13T15:58:58.773Z,99875.51
2023-01-13T16:01:26.767Z,99881.54
2023-01-13T16:03:56.557Z,99880.24
2023-01-13T16:06:32.462Z,99878.45
2023-01-13T16:09:02.031Z,99881.92
2023-01-13T16:11:31.628Z,99888.40
2023-01-13T16:13:59.621Z,99894.45
2023-01-13T16:16:28.849Z,99900.27
2023-01-13T16:18:57.066Z,99893.11
2023-01-13T16:21:25.285Z,99898.63
2023-01-13T16:23:53.455Z,99901.99
2023-01-13T16:26:24.642Z,99902.83
2023-01-13T16:28:54.557Z,99904.48
2023-01-13T16:31:27.122Z,99909.34
2023-01-13T16:33:55.615Z,99922.14
2023-01-13T16:36:23.760Z,99928.83
2023-01-13T16:38:52.598Z,99926.52
2023-01-13T16:41:21.842Z,99928.71
2023-01-13T16:43:49.971Z,99932.62
2023-01-13T16:46:24.643Z,99928.73
2023-01-13T16:48:57.828Z,99930.52
2023-01-13T16:51:25.838Z,99931.55
2023-01-13T16:53:54.122Z,99939.36
2023-01-13T16:56:34.115Z,99942.49
2023-01-13T16:59:13.566Z,99944.67
2023-01-13T17:01:43.481Z,99947.20
2023-01-13T17:04:17.250Z,99948.95
2023-01-13T17:06:51.542Z,99947.83
2023-01-13T17:09:22.771Z,99959.70
2023-01-13T17:11:50.886Z,99963.11
2023-01-13T17:14:22.104Z,99967.33
2023-01-13T17:16:52.305Z,99971.30
2023-01-13T17:19:22.038Z,99969.07
2023-01-13T17:21:51.249Z,99969.16
2023-01-13T17:24:19.261Z,99963.86
2023-01-13T17:26:49.372Z,99962.27
2023-01-13T17:29:23.099Z,99959.04
2023-01-13T17:31:51.630Z,99960.55
2023-01-13T17:34:20.135Z,99964.05
2023-01-13T17:36:48.553Z,99966.92
2023-01-13T17:39:21.956Z,99976.55
2023-01-13T17:41:51.388Z,99974.84
2023-01-13T17:44:21.142Z,99981.91
2023-01-13T17:46:49.553Z,99985.10
2023-01-13T17:49:19.164Z,99985.27
2023-01-13T17:51:51.599Z,99984.92
2023-01-13T17:54:19.779Z,99985.30
2023-01-13T17:56:49.150Z,99984.61
2023-01-13T17:59:19.924Z,99986.62
2023-01-13T18:01:47.981Z,99987.44
2023-01-13T18:04:22.142Z,99987.90
2023-01-13T18:06:50.696Z,99993.71
2023-01-13T18:09:19.150Z,99993.02
2023-01-13T18:11:47.366Z,99991.29
2023-01-13T18:14:15.475Z,99992.30
2023-01-13T18:16:43.732Z,99992.58
2023-01-13T18:19:30.351Z,99992.95
2023-01-13T18:22:16.934Z,99992.91
2023-01-13T18:25:03.312Z,100002.27
2023-01-13T18:27:38.117Z,100004.07
2023-01-13T18:30:07.055Z,100014.91
2023-01-13T18:32:35.568Z,100014.95
2023-01-13T18:35:09.136Z,100010.98
2023-01-13T18:37:40.217Z,100009.41
2023-01-13T18:40:10.635Z,100009.23
2023-01-13T18:42:59.317Z,100013.19
2023-01-13T18:45:32.226Z,100013.29
2023-01-13T18:48:02.241Z,100022.98
2023-01-13T18:50:31.032Z,100024.86
2023-01-13T18:52:59.130Z,100028.54
2023-01-13T18:55:28.863Z,100032.05
2023-01-13T18:57:57.417Z,100035.27
2023-01-13T19:00:27.208Z,100035.80
2023-01-13T19:05:35.610Z,100037.08
2023-01-13T19:08:04.579Z,100039.88
2023-01-13T19:10:32.841Z,100046.89
2023-01-13T19:13:01.728Z,100052.13
2023-01-13T19:15:30.124Z,100061.73
2023-01-13T19:17:58.104Z,100066.80
2023-01-13T19:20:26.069Z,100071.02
2023-01-13T19:22:55.100Z,100073.13
2023-01-13T19:25:23.048Z,100081.35
2023-01-13T19:27:50.889Z,100078.48
2023-01-13T19:30:19.271Z,100080.21
2023-01-13T19:32:47.429Z,100075.69
2023-01-13T19:35:17.835Z,100072.86
2023-01-13T19:37:46.043Z,100072.31
2023-01-13T19:40:14.101Z,100075.33
2023-01-13T19:43:03.724Z,100075.48
2023-01-13T19:45:35.485Z,100078.64
2023-01-13T19:48:05.660Z,100079.77
2023-01-13T19:50:41.704Z,100077.37
2023-01-13T19:53:16.216Z,100081.52
2023-01-13T19:55:49.623Z,100086.44
2023-01-13T19:58:20.614Z,100083.83
2023-01-13T20:00:48.748Z,100088.39
2023-01-13T20:03:20.804Z,100092.28
2023-01-13T20:05:49.282Z,100097.36
2023-01-13T20:08:19.395Z,100099.88
2023-01-13T20:10:48.703Z,100103.44
2023-01-13T20:13:17.171Z,100109.38
2023-01-13T20:15:45.246Z,100112.48
2023-01-13T20:18:13.261Z,100116.84
2023-01-13T20:20:41.179Z,100117.16
2023-01-13T20:23:09.617Z,100118.04
2023-01-13T20:25:37.566Z,100118.11
2023-01-13T20:28:06.837Z,100121.30
2023-01-13T20:30:35.179Z,100124.15
2023-01-13T20:33:03.180Z,100124.59
2023-01-13T20:35:31.085Z,100122.84
2023-01-13T20:37:59.197Z,100125.30
2023-01-13T20:40:27.467Z,100119.43
2023-01-13T20:42:56.583Z,100126.99
2023-01-13T20:45:26.177Z,100146.02
2023-01-13T20:47:54.384Z,100151.45
2023-01-13T20:50:22.415Z,100154.69
2023-01-13T20:52:52.830Z,100156.41
2023-01-13T20:55:20.899Z,100165.60
2023-01-13T20:57:51.502Z,100167.26
2023-01-13T21:00:19.964Z,100171.39
2023-01-13T21:02:47.913Z,100165.95
2023-01-13T21:05:16.592Z,100170.45
2023-01-13T21:07:44.763Z,100173.61
2023-01-13T21:10:12.829Z,100176.86
2023-01-13T21:12:59.518Z,100177.19
2023-01-13T21:15:28.403Z,100183.49
2023-01-13T21:18:15.550Z,100182.79
2023-01-13T21:20:43.944Z,100187.48
2023-01-13T21:23:11.854Z,100188.48
2023-01-13T21:25:40.437Z,100191.01
2023-01-13T21:28:13.626Z,100193.38
2023-01-13T21:30:41.717Z,100195.17
2023-01-13T21:33:13.544Z,100196.14
2023-01-13T21:35:42.007Z,100199.27
2023-01-13T21:38:10.922Z,100201.58
2023-01-13T21:40:38.892Z,100202.46
2023-01-13T21:43:25.279Z,100200.27
2023-01-13T21:46:12.103Z,100196.20
2023-01-13T21:48:40.219Z,100194.89
2023-01-13T21:51:08.506Z,100197.82
2023-01-13T21:53:36.304Z,100205.51
2023-01-13T21:56:04.475Z,100208.46
2023-01-13T21:58:32.751Z,100208.84
2023-01-13T22:01:02.102Z,100209.85
2023-01-13T22:03:30.226Z,100211.30
2023-01-13T22:05:58.192Z,100213.13
2023-01-13T22:08:26.353Z,100214.44
2023-01-13T22:10:58.247Z,100215.75
2023-01-13T22:13:47.604Z,100215.53
2023-01-13T22:16:16.092Z,100223.55
2023-01-13T22:18:44.246Z,100223.73
2023-01-13T22:21:12.143Z,100222.72
2023-01-13T22:23:40.172Z,100225.77
2023-01-13T22:26:08.354Z,100228.42
2023-01-13T22:28:43.636Z,100229.34
2023-01-13T22:31:15.541Z,100228.98
2023-01-13T22:33:47.337Z,100227.70
2023-01-13T22:36:15.998Z,100231.91
2023-01-13T22:38:44.352Z,100233.72
2023-01-13T22:41:12.254Z,100234.19
2023-01-13T22:43:40.434Z,100230.64
2023-01-13T22:46:12.539Z,100235.67
2023-01-13T22:48:41.045Z,100239.66
2023-01-13T22:51:11.963Z,100236.91
2023-01-13T22:53:41.457Z,100243.11
2023-01-13T22:56:16.101Z,100243.98
2023-01-13T22:58:45.121Z,100248.59
2023-01-13T23:01:15.708Z,100250.76
2023-01-13T23:03:47.651Z,100248.79
2023-01-13T23:06:17.161Z,100255.09
2023-01-13T23:08:45.295Z,100253.61
2023-01-13T23:11:15.374Z,100257.52
2023-01-13T23:13:44.188Z,100258.86
2023-01-13T23:16:22.732Z,100258.11
2023-01-13T23:18:50.904Z,100256.69
2023-01-13T23:21:21.515Z,100266.17
2023-01-13T23:23:50.400Z,100270.09
2023-01-13T23:26:19.909Z,100269.55
2023-01-13T23:28:48.570Z,100273.80
2023-01-13T23:31:21.630Z,100277.38
2023-01-13T23:33:49.646Z,100278.71
2023-01-13T23:36:20.619Z,100278.73
2023-01-13T23:38:48.488Z,100274.52
2023-01-13T23:41:19.413Z,100272.99
2023-01-13T23:43:52.297Z,100273.72
2023-01-13T23:46:21.071Z,100275.24
2023-01-13T23:48:49.821Z,100272.85
2023-01-13T23:51:18.170Z,100274.52
2023-01-13T23:53:49.245Z,100275.14
2023-01-13T23:56:19.867Z,100278.08
2023-01-13T23:58:48.492Z,100279.55
